X  Blizu METAR Podaci o vazduhoplovstvu     LGRX Patras Araxos Agamemnon Airport
Temperatura
27°C Temperatura
22°C Tačka Rose
74% Vlaga



Vetar
0 M/S
0 MPS
0 KM/S
0 Čvorovi



Tiho
S
Trenutna situacija

Delimično oblačno Delimično oblačno
Vazdušni pritisak 1007.79 (hPa) - 29.76 (inHg)
Vidljivost 6 (Milje) - 9.7 (km)
Aerodrom
Aerodromski kod. LGRX

Lokacija: Patras Araxos Agamemnon Airport
Udaljenost: 108 (km)

Metar:
LGRX 232350Z 00000KT 9999 FEW025 27/22 Q1008 RMK FEW080 BLU

Vreme: 24-07-2024 02:50 EEST